Time;durP1;ratioP1;P1;durP2;ratioP2;P2;SDS_P1;SDS_P2;PMS_P1;PMS_P2;Temp;Humidity;BMP_temperature;BMP_pressure;BME280_temperature;BME280_humidity;BME280_pressure;Samples;Min_cycle;Max_cycle;Signal;HPM_P1;HPM_P2
2022/06/27 00:00:42;;;;;;;;;;;;;;;23.51;47.56;102001.03;2099729;28;993;-48
2022/06/27 00:01:42;;;;;;;;;;;;;;;23.50;48.31;101999.28;2099549;28;788;-49
2022/06/27 00:02:42;;;;;;;;;;;;;;;23.50;48.40;102001.06;2099689;28;1008;-47
2022/06/27 00:03:42;;;;;;;;;;;;;;;23.49;48.50;102000.19;2099619;28;1341;-47
2022/06/27 00:04:43;;;;;;;;;;;;;;;23.49;48.34;102000.19;2098787;28;1019;-49
2022/06/27 00:05:43;;;;;;;;;;;;;;;23.49;48.66;101994.78;2100380;28;1028;-49
2022/06/27 00:06:43;;;;;;;;;;;;;;;23.49;48.44;101997.50;2100284;28;822;-49
2022/06/27 00:07:43;;;;;;;;;;;;;;;23.47;49.12;101996.66;2099472;28;909;-48
2022/06/27 00:08:43;;;;;;;;;;;;;;;23.42;48.83;101998.59;2099957;28;1941;-47
2022/06/27 00:09:44;;;;;;;;;;;;;;;23.38;48.91;101994.19;2100219;28;964;-48
2022/06/27 00:10:44;;;;;;;;;;;;;;;23.35;49.88;101988.88;2099520;28;1541;-48
2022/06/27 00:11:44;;;;;;;;;;;;;;;23.36;49.62;101993.34;2099604;28;981;-50
2022/06/27 00:12:44;;;;;;;;;;;;;;;23.38;49.01;101999.59;2100214;28;771;-49
2022/06/27 00:13:45;;;;;;;;;;;;;;;23.39;49.32;102002.25;2100202;28;826;-48
2022/06/27 00:14:45;;;;;;;;;;;;;;;23.37;49.47;101997.81;2100213;28;806;-48
2022/06/27 00:15:45;;;;;;;;;;;;;;;23.30;49.24;101998.91;2100304;28;783;-48
2022/06/27 00:16:45;;;;;;;;;;;;;;;23.27;48.97;101993.59;2100170;28;973;-48
2022/06/27 00:17:46;;;;;;;;;;;;;;;23.27;49.02;101990.88;2100157;28;992;-48
2022/06/27 00:18:46;;;;;;;;;;;;;;;23.24;48.27;101995.44;2100162;28;823;-50
2022/06/27 00:19:46;;;;;;;;;;;;;;;23.22;47.50;101994.59;2100163;28;901;-48
2022/06/27 00:20:46;;;;;;;;;;;;;;;23.22;47.10;101986.50;2100257;28;1036;-49
2022/06/27 00:21:46;;;;;;;;;;;;;;;23.21;47.62;101995.50;2100144;28;814;-48
2022/06/27 00:22:46;;;;;;;;;;;;;;;23.18;47.06;101990.16;2098620;28;1150;-50
2022/06/27 00:23:47;;;;;;;;;;;;;;;23.17;46.65;101993.78;2099608;28;1303;-48
2022/06/27 00:24:47;;;;;;;;;;;;;;;23.15;46.02;101990.25;2099689;28;839;-47
2022/06/27 00:25:47;;;;;;;;;;;;;;;23.15;45.83;101998.34;2100201;28;779;-47
2022/06/27 00:26:48;;;;;;;;;;;;;;;23.14;45.33;101991.16;2100100;28;922;-48
2022/06/27 00:27:48;;;;;;;;;;;;;;;23.14;45.48;101993.00;2099886;28;1319;-49
2022/06/27 00:28:49;;;;;;;;;;;;;;;23.14;45.24;101993.88;2100007;28;1965;-48
2022/06/27 00:29:49;;;;;;;;;;;;;;;23.15;44.34;101995.66;2099374;28;973;-49
2022/06/27 00:30:49;;;;;;;;;;;;;;;23.16;44.72;101999.25;2099467;28;909;-48
2022/06/27 00:31:49;;;;;;;;;;;;;;;23.15;44.50;101992.94;2100043;28;1044;-48
2022/06/27 00:32:49;;;;;;;;;;;;;;;23.16;43.68;101996.56;2100155;28;997;-49
2022/06/27 00:33:50;;;;;;;;;;;;;;;23.13;43.92;101993.94;2100069;28;802;-48
2022/06/27 00:34:50;;;;;;;;;;;;;;;23.14;43.39;101987.59;2100026;28;866;-49
2022/06/27 00:35:50;;;;;;;;;;;;;;;23.13;43.26;101986.69;2100059;28;787;-48
2022/06/27 00:36:51;;;;;;;;;;;;;;;23.14;43.32;101990.31;2100040;28;877;-49
2022/06/27 00:37:51;;;;;;;;;;;;;;;23.15;43.01;101992.94;2099915;28;1246;-48
2022/06/27 00:38:51;;;;;;;;;;;;;;;23.15;43.23;101987.53;2100009;28;977;-48
2022/06/27 00:39:51;;;;;;;;;;;;;;;23.13;43.37;101994.81;2099295;28;770;-49
2022/06/27 00:40:51;;;;;;;;;;;;;;;23.15;43.29;101997.47;2098540;28;1097;-49
2022/06/27 00:41:51;;;;;;;;;;;;;;;23.13;43.02;102000.22;2100013;28;791;-49
2022/06/27 00:42:52;;;;;;;;;;;;;;;23.13;42.93;102000.22;2100140;28;670;-47
2022/06/27 00:43:52;;;;;;;;;;;;;;;23.15;42.98;101997.47;2099994;28;882;-48
2022/06/27 00:44:52;;;;;;;;;;;;;;;23.16;43.64;101989.31;2099960;28;961;-48
2022/06/27 00:45:52;;;;;;;;;;;;;;;23.15;43.91;101995.66;2099926;28;973;-49
2022/06/27 00:46:52;;;;;;;;;;;;;;;23.14;43.35;101996.56;2099971;28;1007;-48
2022/06/27 00:47:52;;;;;;;;;;;;;;;23.14;43.56;101993.00;2099313;28;1969;-49
2022/06/27 00:48:53;;;;;;;;;;;;;;;23.14;43.88;101985.75;2099344;28;871;-48
2022/06/27 00:49:53;;;;;;;;;;;;;;;23.17;43.99;101995.63;2099887;28;988;-48
2022/06/27 00:50:53;;;;;;;;;;;;;;;23.16;43.86;101996.56;2099245;28;973;-49
2022/06/27 00:51:54;;;;;;;;;;;;;;;23.15;43.81;101998.34;2099320;28;807;-48
2022/06/27 00:52:54;;;;;;;;;;;;;;;23.15;44.73;101995.66;2099835;28;954;-49
2022/06/27 00:53:55;;;;;;;;;;;;;;;23.18;44.64;101997.41;2099847;28;941;-49
2022/06/27 00:54:55;;;;;;;;;;;;;;;23.15;44.72;102000.19;2099864;28;985;-49
2022/06/27 00:55:55;;;;;;;;;;;;;;;23.16;44.33;101992.03;2099892;28;869;-48
2022/06/27 00:56:55;;;;;;;;;;;;;;;23.16;44.45;101996.56;2099222;28;894;-49
2022/06/27 00:57:56;;;;;;;;;;;;;;;23.15;44.48;101992.94;2099250;28;791;-47
2022/06/27 00:58:56;;;;;;;;;;;;;;;23.17;44.59;101995.63;2099272;28;1002;-49
2022/06/27 00:59:56;;;;;;;;;;;;;;;23.17;45.08;101993.78;2099841;28;981;-47
2022/06/27 01:00:56;;;;;;;;;;;;;;;23.15;44.52;101995.66;2099976;28;724;-48
2022/06/27 01:01:57;;;;;;;;;;;;;;;23.16;44.36;101992.03;2099785;28;993;-47
2022/06/27 01:02:57;;;;;;;;;;;;;;;23.15;45.32;101990.25;2099819;28;850;-50
2022/06/27 01:04:00;;;;;;;;;;;;;;;23.16;44.90;101991.16;2099821;28;791;-49
2022/06/27 01:05:00;;;;;;;;;;;;;;;23.15;45.12;101992.06;2099806;28;846;-48
2022/06/27 01:06:02;;;;;;;;;;;;;;;23.14;45.51;101988.47;2099872;28;846;-48
2022/06/27 01:07:02;;;;;;;;;;;;;;;23.13;44.85;101992.09;2099820;28;863;-48
2022/06/27 01:28:08;;;;;;;;;;;;;;;23.09;43.54;101995.81;2098704;28;1368;-49
2022/06/27 01:29:09;;;;;;;;;;;;;;;23.09;42.98;101998.50;2098642;28;818;-50
2022/06/27 01:30:09;;;;;;;;;;;;;;;23.11;42.80;101996.66;2098635;28;838;-50
2022/06/27 01:31:13;;;;;;;;;;;;;;;23.12;43.08;101994.84;2098639;28;827;-50
2022/06/27 01:32:13;;;;;;;;;;;;;;;23.12;43.41;101995.72;2098597;28;981;-50
2022/06/27 01:33:13;;;;;;;;;;;;;;;23.09;43.12;101996.72;2098576;28;844;-50
2022/06/27 01:34:14;;;;;;;;;;;;;;;23.10;43.37;101997.59;2098017;28;1027;-51
2022/06/27 01:35:14;;;;;;;;;;;;;;;23.11;42.56;101996.66;2098537;28;1024;-51
2022/06/27 01:37:33;;;;;;;;;;;;;;;23.12;43.47;101993.03;2098493;28;631;-51
2022/06/27 01:38:33;;;;;;;;;;;;;;;23.11;43.62;101999.34;2098889;28;787;-50
2022/06/27 01:39:33;;;;;;;;;;;;;;;23.09;43.83;101995.81;2098829;28;851;-50
2022/06/27 01:40:34;;;;;;;;;;;;;;;23.10;43.78;101992.19;2098890;28;977;-51
2022/06/27 01:41:34;;;;;;;;;;;;;;;23.12;43.22;101994.84;2099160;28;1104;-50
2022/06/27 01:42:35;;;;;;;;;;;;;;;23.12;43.10;101994.84;2098817;28;1508;-50
2022/06/27 01:43:35;;;;;;;;;;;;;;;23.11;44.04;101991.25;2098928;28;984;-50
2022/06/27 01:44:35;;;;;;;;;;;;;;;23.12;44.11;101994.84;2098867;28;826;-50
2022/06/27 01:45:35;;;;;;;;;;;;;;;23.13;43.60;101993.94;2098868;28;946;-50
2022/06/27 01:46:43;;;;;;;;;;;;;;;23.12;43.54;101993.03;2098832;28;1012;-51
2022/06/27 01:47:43;;;;;;;;;;;;;;;23.12;44.39;101998.44;2098761;28;1989;-50
2022/06/27 01:48:44;;;;;;;;;;;;;;;23.13;44.49;101999.34;2098833;28;814;-51
2022/06/27 01:49:44;;;;;;;;;;;;;;;23.13;44.76;101993.94;2098824;28;953;-50
2022/06/27 01:50:46;;;;;;;;;;;;;;;23.13;44.81;101992.09;2098826;28;858;-50
2022/06/27 01:51:48;;;;;;;;;;;;;;;23.14;44.18;101993.00;2098590;28;1332;-50
2022/06/27 01:52:49;;;;;;;;;;;;;;;23.14;44.40;101999.28;2098839;28;1036;-50
2022/06/27 01:53:51;;;;;;;;;;;;;;;23.14;45.15;101993.88;2098799;28;1039;-50
2022/06/27 01:54:51;;;;;;;;;;;;;;;23.14;44.49;101993.00;2098809;28;752;-51
2022/06/27 01:55:51;;;;;;;;;;;;;;;23.13;44.90;101992.09;2098792;28;961;-51
2022/06/27 01:56:51;;;;;;;;;;;;;;;23.12;45.02;102001.13;2098762;28;977;-51
2022/06/27 01:57:52;;;;;;;;;;;;;;;23.13;45.21;101994.81;2098732;28;879;-50
2022/06/27 01:58:57;;;;;;;;;;;;;;;23.12;45.33;101993.03;2098757;28;760;-50
2022/06/27 01:59:57;;;;;;;;;;;;;;;23.14;44.89;101993.00;2098762;28;819;-50
2022/06/27 02:00:57;;;;;;;;;;;;;;;23.13;45.00;101992.09;2098712;28;1024;-50
2022/06/27 02:01:59;;;;;;;;;;;;;;;23.14;45.67;101996.56;2098719;28;828;-50
2022/06/27 02:03:00;;;;;;;;;;;;;;;23.15;45.37;101994.78;2098762;28;858;-51
2022/06/27 02:04:00;;;;;;;;;;;;;;;23.15;45.87;101990.25;2098657;28;1368;-50
2022/06/27 02:05:01;;;;;;;;;;;;;;;23.14;45.58;101983.06;2098748;28;763;-50
2022/06/27 02:06:01;;;;;;;;;;;;;;;23.14;45.32;101991.16;2098703;28;925;-50
2022/06/27 02:07:02;;;;;;;;;;;;;;;23.14;46.25;101996.56;2098708;28;969;-50
2022/06/27 02:08:03;;;;;;;;;;;;;;;23.12;46.33;101989.44;2098589;28;1957;-50
2022/06/27 02:09:05;;;;;;;;;;;;;;;23.12;45.68;101995.72;2098668;28;997;-50
2022/06/27 02:10:05;;;;;;;;;;;;;;;23.13;46.29;101993.94;2098467;28;1348;-50
2022/06/27 02:11:05;;;;;;;;;;;;;;;23.14;45.92;101990.31;2098603;28;966;-51
2022/06/27 02:12:18;;;;;;;;;;;;;;;23.13;45.95;101986.69;2098655;28;847;-51
2022/06/27 02:13:18;;;;;;;;;;;;;;;23.14;46.58;101990.31;2098668;28;811;-50
2022/06/27 02:14:19;;;;;;;;;;;;;;;23.14;46.62;101993.00;2098664;28;897;-51
2022/06/27 02:15:19;;;;;;;;;;;;;;;23.15;46.47;101992.94;2098646;28;943;-50
2022/06/27 02:16:19;;;;;;;;;;;;;;;23.12;46.34;101984.91;2098587;28;961;-50
2022/06/27 02:17:20;;;;;;;;;;;;;;;23.12;46.97;101992.16;2098579;28;922;-50
2022/06/27 02:18:20;;;;;;;;;;;;;;;23.13;47.55;101983.13;2098585;28;764;-50
2022/06/27 02:19:20;;;;;;;;;;;;;;;23.13;47.89;101996.63;2098578;28;968;-50
2022/06/27 02:20:21;;;;;;;;;;;;;;;23.14;48.71;101990.31;2098591;28;953;-51
2022/06/27 02:21:24;;;;;;;;;;;;;;;23.14;48.28;101988.47;2098562;28;834;-50
2022/06/27 02:22:25;;;;;;;;;;;;;;;23.14;49.48;101985.75;2098535;28;897;-51
2022/06/27 02:23:25;;;;;;;;;;;;;;;23.13;49.50;101986.69;2098545;28;811;-51
2022/06/27 02:24:25;;;;;;;;;;;;;;;23.14;50.22;101995.72;2098594;28;844;-50
2022/06/27 02:25:25;;;;;;;;;;;;;;;23.13;50.52;101993.94;2098533;28;882;-50
2022/06/27 02:26:31;;;;;;;;;;;;;;;23.12;50.69;101990.31;2098526;28;857;-50
2022/06/27 02:27:33;;;;;;;;;;;;;;;23.13;49.92;101994.81;2101811;28;1894;-50
2022/06/27 02:28:33;;;;;;;;;;;;;;;23.11;49.52;101996.66;2098233;28;1232;-50
2022/06/27 02:29:33;;;;;;;;;;;;;;;23.09;49.27;101993.09;2098441;28;961;-51
2022/06/27 02:30:33;;;;;;;;;;;;;;;23.07;49.84;101989.56;2098452;28;1036;-50
2022/06/27 02:31:34;;;;;;;;;;;;;;;23.04;49.40;101997.75;2098469;28;909;-51
2022/06/27 02:32:34;;;;;;;;;;;;;;;23.00;49.24;102005.03;2098473;28;772;-50
2022/06/27 02:33:35;;;;;;;;;;;;;;;22.97;48.45;101998.81;2098600;28;799;-50
2022/06/27 02:34:37;;;;;;;;;;;;;;;22.94;48.33;101998.00;2098425;28;787;-51
2022/06/27 02:35:39;;;;;;;;;;;;;;;22.93;47.87;102001.63;2098394;28;1037;-51
2022/06/27 02:36:41;;;;;;;;;;;;;;;22.93;47.34;102001.63;2098483;28;1037;-50
2022/06/27 02:37:41;;;;;;;;;;;;;;;22.92;47.30;102007.97;2098116;28;1235;-50
2022/06/27 02:38:43;;;;;;;;;;;;;;;22.91;47.05;102003.47;2097214;28;771;-51
2022/06/27 02:39:44;;;;;;;;;;;;;;;22.92;46.32;101997.16;2092287;28;1056;-50
2022/06/27 02:40:46;;;;;;;;;;;;;;;22.92;46.47;102002.56;2092555;28;656;-50
2022/06/27 02:41:47;;;;;;;;;;;;;;;22.89;45.52;101999.94;2092597;28;791;-51
2022/06/27 02:42:48;;;;;;;;;;;;;;;22.90;45.29;102006.19;2092571;28;784;-51
2022/06/27 02:43:49;;;;;;;;;;;;;;;22.89;44.93;102005.34;2092560;28;921;-50
2022/06/27 02:44:49;;;;;;;;;;;;;;;22.90;45.14;101995.41;2092590;28;973;-50
2022/06/27 02:45:50;;;;;;;;;;;;;;;22.89;44.85;101994.53;2092292;28;1010;-51
2022/06/27 02:46:51;;;;;;;;;;;;;;;22.90;44.54;101999.00;2092550;28;826;-51
2022/06/27 02:47:54;;;;;;;;;;;;;;;22.89;44.11;101989.13;2092443;28;1980;-50
2022/06/27 02:48:54;;;;;;;;;;;;;;;22.91;43.97;101992.66;2092569;28;796;-51
2022/06/27 02:49:54;;;;;;;;;;;;;;;22.91;43.37;101991.78;2092531;28;997;-50
2022/06/27 02:50:56;;;;;;;;;;;;;;;22.90;43.91;101990.91;2091827;28;792;-52
2022/06/27 02:51:56;;;;;;;;;;;;;;;22.91;43.73;101987.28;2091910;28;846;-51
2022/06/27 02:52:59;;;;;;;;;;;;;;;22.91;43.44;101995.38;2092477;28;804;-50
2022/06/27 02:54:10;;;;;;;;;;;;;;;22.92;43.58;101991.75;2092482;28;986;-51
2022/06/27 02:55:14;;;;;;;;;;;;;;;22.93;43.65;101998.94;2092507;28;867;-51
2022/06/27 02:56:20;;;;;;;;;;;;;;;22.92;43.17;101999.84;2092453;28;784;-51
2022/06/27 02:57:59;;;;;;;;;;;;;;;22.93;42.90;101993.53;2092592;28;787;-51
2022/06/27 02:58:59;;;;;;;;;;;;;;;22.93;43.13;101995.31;2066983;28;1151;-50
2022/06/27 03:00:01;;;;;;;;;;;;;;;22.94;43.67;101941.25;2066951;28;804;-50
2022/06/27 03:01:02;;;;;;;;;;;;;;;22.93;43.52;101936.78;2066930;28;879;-50
2022/06/27 03:02:02;;;;;;;;;;;;;;;22.94;43.50;101943.97;2066942;28;906;-51
2022/06/27 03:03:04;;;;;;;;;;;;;;;22.94;43.50;101941.25;2066874;28;781;-50
2022/06/27 03:04:04;;;;;;;;;;;;;;;22.93;44.05;101935.88;2071445;28;1044;-51
2022/06/27 03:05:05;;;;;;;;;;;;;;;22.94;43.46;101938.56;2074967;28;985;-50
2022/06/27 03:06:06;;;;;;;;;;;;;;;22.94;44.30;101927.75;2074953;28;1350;-50
2022/06/27 03:07:07;;;;;;;;;;;;;;;22.95;44.44;101959.25;2074952;28;1949;-51
2022/06/27 03:08:07;;;;;;;;;;;;;;;22.96;44.49;102046.59;2074977;28;823;-50
2022/06/27 03:09:07;;;;;;;;;;;;;;;22.96;44.06;102016.84;2074968;28;884;-50
2022/06/27 03:10:08;;;;;;;;;;;;;;;22.93;44.71;102012.44;2074964;28;816;-50
2022/06/27 03:11:13;;;;;;;;;;;;;;;22.95;44.51;102006.97;2074882;28;951;-50
2022/06/27 03:12:13;;;;;;;;;;;;;;;22.94;44.86;102014.22;2074978;28;887;-50
2022/06/27 03:13:13;;;;;;;;;;;;;;;22.93;45.21;102015.13;2075088;28;863;-51
2022/06/27 03:14:13;;;;;;;;;;;;;;;22.93;45.30;102007.03;2074948;28;834;-50
2022/06/27 03:15:14;;;;;;;;;;;;;;;22.93;44.59;102004.34;2074921;28;930;-50
2022/06/27 03:16:14;;;;;;;;;;;;;;;22.94;44.90;102010.59;2074918;28;883;-50
2022/06/27 03:17:14;;;;;;;;;;;;;;;22.93;44.32;102004.34;2074873;28;891;-51
2022/06/27 03:18:15;;;;;;;;;;;;;;;22.92;44.73;102005.25;2074889;28;875;-51
2022/06/27 03:19:15;;;;;;;;;;;;;;;22.92;44.76;102009.75;2074916;28;820;-51
2022/06/27 03:20:17;;;;;;;;;;;;;;;22.90;44.51;102009.81;2074850;28;1056;-50
2022/06/27 03:21:18;;;;;;;;;;;;;;;22.92;44.48;101996.25;2074883;28;812;-50
2022/06/27 03:22:18;;;;;;;;;;;;;;;22.93;43.94;101979.09;2074304;28;1122;-50
2022/06/27 03:23:18;;;;;;;;;;;;;;;22.93;43.54;101974.59;2074863;28;986;-50
2022/06/27 03:24:20;;;;;;;;;;;;;;;22.94;43.95;101975.47;2074847;28;922;-50
2022/06/27 03:25:20;;;;;;;;;;;;;;;22.94;43.20;101972.78;2074894;28;855;-51
2022/06/27 03:26:20;;;;;;;;;;;;;;;22.96;43.75;101979.03;2066665;28;1069;-51
2022/06/27 03:27:20;;;;;;;;;;;;;;;22.96;43.34;101984.44;2068423;28;2654;-51
2022/06/27 03:28:21;;;;;;;;;;;;;;;22.97;43.06;101978.09;2083013;28;1056;-50
2022/06/27 03:29:21;;;;;;;;;;;;;;;22.98;43.03;101979.88;2083000;28;768;-51
2022/06/27 03:30:21;;;;;;;;;;;;;;;22.98;43.36;101981.69;2083346;28;1038;-51
2022/06/27 03:31:21;;;;;;;;;;;;;;;22.98;43.72;101963.66;2083299;28;1337;-51
2022/06/27 03:32:21;;;;;;;;;;;;;;;22.99;43.50;101970.84;2083381;28;881;-50
2022/06/27 03:33:22;;;;;;;;;;;;;;;22.99;43.77;101978.06;2083944;28;929;-51
2022/06/27 03:34:23;;;;;;;;;;;;;;;23.00;43.56;101967.22;2083952;28;783;-50
2022/06/27 03:35:24;;;;;;;;;;;;;;;23.00;43.96;101972.63;2083914;28;811;-50
2022/06/27 03:36:24;;;;;;;;;;;;;;;23.00;43.31;101975.31;2083889;28;771;-51
2022/06/27 03:37:24;;;;;;;;;;;;;;;23.00;44.08;101974.41;2083890;28;1016;-50
2022/06/27 03:38:24;;;;;;;;;;;;;;;22.99;44.21;101972.66;2083859;28;743;-51
2022/06/27 03:39:24;;;;;;;;;;;;;;;22.99;43.41;101972.66;2083857;28;917;-50
2022/06/27 03:40:25;;;;;;;;;;;;;;;23.00;44.16;101977.13;2091552;28;1304;-51
2022/06/27 03:41:25;;;;;;;;;;;;;;;23.02;43.91;101972.56;2092373;28;748;-50
2022/06/27 03:42:26;;;;;;;;;;;;;;;23.02;43.96;101969.88;2092086;28;831;-52
2022/06/27 03:43:27;;;;;;;;;;;;;;;23.02;44.13;101972.56;2092179;28;803;-51
2022/06/27 03:44:29;;;;;;;;;;;;;;;23.00;44.39;101967.22;2092067;28;898;-50
2022/06/27 03:45:29;;;;;;;;;;;;;;;23.00;43.93;101969.91;2092068;28;871;-50
2022/06/27 03:46:29;;;;;;;;;;;;;;;23.01;44.59;101966.28;2092125;28;834;-50
2022/06/27 03:47:29;;;;;;;;;;;;;;;23.01;44.70;101959.97;2091972;28;1901;-51
2022/06/27 03:50:00;;;;;;;;;;;;;;;23.01;44.78;101960.88;2092209;28;625;-51
2022/06/27 03:51:00;;;;;;;;;;;;;;;23.01;44.77;101954.56;2091221;28;803;-51
2022/06/27 03:52:00;;;;;;;;;;;;;;;23.00;44.82;101958.22;2092021;28;957;-51
2022/06/27 03:53:01;;;;;;;;;;;;;;;23.01;45.18;101957.28;2091997;28;973;-50
2022/06/27 03:54:01;;;;;;;;;;;;;;;23.00;44.79;101960.91;2092009;28;771;-50
2022/06/27 03:55:02;;;;;;;;;;;;;;;23.00;45.52;101959.13;2092023;28;1024;-51
2022/06/27 03:56:02;;;;;;;;;;;;;;;23.02;44.96;101959.97;2092016;28;871;-50
2022/06/27 03:57:02;;;;;;;;;;;;;;;23.04;44.82;101960.81;2092118;28;709;-50
2022/06/27 03:58:02;;;;;;;;;;;;;;;23.03;45.41;101961.72;2090721;28;1015;-50
2022/06/27 03:59:02;;;;;;;;;;;;;;;23.01;45.19;101962.69;2091376;28;906;-50
2022/06/27 04:00:04;;;;;;;;;;;;;;;23.01;45.79;101966.28;2091938;28;1012;-52
2022/06/27 04:01:04;;;;;;;;;;;;;;;23.02;45.87;101945.53;2092024;28;1342;-51
2022/06/27 04:02:05;;;;;;;;;;;;;;;23.03;45.92;101968.94;2091246;28;1358;-51
2022/06/27 04:03:05;;;;;;;;;;;;;;;24.08;42.90;101970.56;2091346;28;787;-50
2022/06/27 04:04:05;;;;;;;;;;;;;;;24.86;41.07;101963.59;2091274;28;836;-52
2022/06/27 04:05:06;;;;;;;;;;;;;;;25.47;40.37;101961.53;2091330;28;874;-53
2022/06/27 04:06:06;;;;;;;;;;;;;;;25.82;38.78;101956.59;2091939;28;846;-54
2022/06/27 04:07:06;;;;;;;;;;;;;;;26.13;38.69;101964.44;2091901;28;791;-53
2022/06/27 04:08:07;;;;;;;;;;;;;;;26.31;38.36;101967.38;2091798;28;1944;-53
2022/06/27 04:09:07;;;;;;;;;;;;;;;26.70;37.70;101958.53;2091882;28;902;-52
2022/06/27 04:10:08;;;;;;;;;;;;;;;26.78;37.43;101974.53;2091901;28;1017;-51
2022/06/27 04:11:08;;;;;;;;;;;;;;;26.96;37.59;101983.75;2091864;28;1152;-51
2022/06/27 04:12:09;;;;;;;;;;;;;;;27.05;37.47;101979.75;2091874;28;977;-51
2022/06/27 04:13:09;;;;;;;;;;;;;;;27.48;36.02;101974.28;2091925;28;886;-51
2022/06/27 04:14:09;;;;;;;;;;;;;;;27.40;36.63;101976.41;2091795;28;851;-51
2022/06/27 04:15:10;;;;;;;;;;;;;;;27.51;36.69;101969.56;2091831;28;989;-50
2022/06/27 04:16:10;;;;;;;;;;;;;;;27.63;36.01;101964.53;2091297;28;1008;-50
2022/06/27 04:17:10;;;;;;;;;;;;;;;27.86;36.30;101952.56;2091841;28;1282;-51
2022/06/27 04:18:10;;;;;;;;;;;;;;;27.95;36.77;101945.81;2091860;28;791;-51
2022/06/27 04:19:11;;;;;;;;;;;;;;;28.47;36.19;101942.38;2091136;28;1179;-50
2022/06/27 04:20:11;;;;;;;;;;;;;;;28.31;36.76;101945.00;2091215;28;827;-51
2022/06/27 04:21:11;;;;;;;;;;;;;;;28.09;37.71;101948.72;2091822;28;771;-50
2022/06/27 04:22:12;;;;;;;;;;;;;;;27.96;37.78;101956.59;2091810;28;851;-50
2022/06/27 04:23:12;;;;;;;;;;;;;;;28.03;38.81;101948.16;2091786;28;1032;-50
2022/06/27 04:24:12;;;;;;;;;;;;;;;28.53;37.37;101944.78;2091768;28;826;-50
2022/06/27 04:25:12;;;;;;;;;;;;;;;28.94;36.78;101934.59;2091754;28;957;-50
2022/06/27 04:26:12;;;;;;;;;;;;;;;28.70;36.63;101945.78;2091723;28;826;-51
2022/06/27 04:27:13;;;;;;;;;;;;;;;28.43;36.58;101942.63;2090852;28;1918;-50
2022/06/27 04:28:14;;;;;;;;;;;;;;;28.64;36.67;101948.81;2091198;28;877;-50
2022/06/27 04:29:14;;;;;;;;;;;;;;;28.65;36.79;101939.69;2091731;28;977;-50
2022/06/27 04:30:18;;;;;;;;;;;;;;;28.72;36.11;101940.25;2091842;28;757;-50
2022/06/27 04:31:18;;;;;;;;;;;;;;;28.94;35.96;101935.50;2091714;28;827;-50
2022/06/27 04:32:19;;;;;;;;;;;;;;;28.94;35.42;101935.50;2091058;28;796;-50
2022/06/27 04:33:19;;;;;;;;;;;;;;;29.07;35.16;101927.53;2091121;28;771;-50
2022/06/27 04:34:19;;;;;;;;;;;;;;;29.01;34.80;101933.31;2091193;28;1015;-50
2022/06/27 04:35:20;;;;;;;;;;;;;;;29.43;33.47;101926.56;2091704;28;922;-51
2022/06/27 04:36:21;;;;;;;;;;;;;;;29.44;33.34;101933.75;2091690;28;785;-51
2022/06/27 04:37:21;;;;;;;;;;;;;;;29.66;33.11;101937.19;2091615;28;1203;-51
2022/06/27 04:38:22;;;;;;;;;;;;;;;29.66;32.51;101932.59;2091653;28;795;-50
2022/06/27 04:39:22;;;;;;;;;;;;;;;29.60;32.47;101935.66;2091145;28;1383;-51
2022/06/27 04:40:22;;;;;;;;;;;;;;;29.49;31.84;101933.53;2091042;28;795;-50
2022/06/27 04:41:23;;;;;;;;;;;;;;;29.40;32.84;101929.47;2091646;28;1029;-50
2022/06/27 04:42:24;;;;;;;;;;;;;;;29.51;32.00;101930.69;2090976;28;823;-51
2022/06/27 04:43:26;;;;;;;;;;;;;;;29.67;31.46;101931.63;2091096;28;830;-50
2022/06/27 04:44:26;;;;;;;;;;;;;;;29.79;31.58;101929.19;2091656;28;866;-50
2022/06/27 04:45:27;;;;;;;;;;;;;;;30.14;30.44;101938.13;2091573;28;812;-51
2022/06/27 04:46:27;;;;;;;;;;;;;;;30.22;29.71;101929.47;2091742;28;764;-50
2022/06/27 04:47:28;;;;;;;;;;;;;;;30.35;30.08;101935.09;2091528;28;1898;-50
2022/06/27 04:48:29;;;;;;;;;;;;;;;30.41;29.51;101929.28;2091589;28;811;-51
2022/06/27 04:49:30;;;;;;;;;;;;;;;30.57;29.29;101937.50;2091619;28;820;-50
2022/06/27 04:50:30;;;;;;;;;;;;;;;30.73;28.69;101937.47;2091584;28;815;-51
2022/06/27 04:51:31;;;;;;;;;;;;;;;30.69;28.63;101940.47;2091581;28;808;-51
2022/06/27 04:52:31;;;;;;;;;;;;;;;30.22;29.54;101943.16;2091060;28;1035;-50
2022/06/27 04:53:33;;;;;;;;;;;;;;;30.43;29.82;101937.41;2090907;28;796;-51
2022/06/27 04:54:33;;;;;;;;;;;;;;;30.55;29.85;101938.53;2090990;28;897;-50
2022/06/27 04:55:33;;;;;;;;;;;;;;;30.34;29.49;101936.06;2091552;28;914;-50
2022/06/27 04:56:35;;;;;;;;;;;;;;;30.67;29.95;101932.38;2090862;28;966;-50
2022/06/27 04:57:36;;;;;;;;;;;;;;;30.69;29.06;101933.16;2090924;28;898;-51
2022/06/27 04:58:36;;;;;;;;;;;;;;;30.89;29.47;101937.41;2091585;28;795;-51
2022/06/27 04:59:37;;;;;;;;;;;;;;;30.76;28.99;101937.28;2091529;28;879;-51
2022/06/27 05:00:37;;;;;;;;;;;;;;;30.79;28.83;101938.06;2091519;28;784;-51
2022/06/27 05:01:38;;;;;;;;;;;;;;;30.21;29.44;101941.38;2091477;28;800;-52
2022/06/27 05:02:38;;;;;;;;;;;;;;;30.16;29.83;101944.41;2091270;28;858;-51
2022/06/27 05:03:38;;;;;;;;;;;;;;;29.97;30.05;101943.63;2091527;28;815;-51
2022/06/27 05:04:38;;;;;;;;;;;;;;;29.95;30.27;101948.31;2091651;28;783;-51
2022/06/27 05:05:39;;;;;;;;;;;;;;;30.30;30.06;101948.19;2091595;28;960;-51
2022/06/27 05:06:39;;;;;;;;;;;;;;;30.88;28.78;101940.25;2091508;28;764;-52
2022/06/27 05:07:39;;;;;;;;;;;;;;;30.59;29.58;101935.56;2091415;28;2008;-52
2022/06/27 05:08:40;;;;;;;;;;;;;;;30.36;29.79;101936.88;2090835;28;1203;-51
2022/06/27 05:09:40;;;;;;;;;;;;;;;30.39;29.89;101935.81;2090819;28;851;-52
2022/06/27 05:10:40;;;;;;;;;;;;;;;30.56;29.64;101935.72;2090316;28;1058;-51
2022/06/27 05:11:41;;;;;;;;;;;;;;;30.93;29.13;101931.75;2091469;28;772;-50
2022/06/27 05:12:41;;;;;;;;;;;;;;;30.73;29.66;101933.84;2091457;28;764;-50
2022/06/27 05:13:41;;;;;;;;;;;;;;;30.19;30.24;101942.47;2090774;28;887;-52
2022/06/27 05:14:41;;;;;;;;;;;;;;;30.14;31.03;101940.88;2090845;28;965;-52
2022/06/27 05:15:41;;;;;;;;;;;;;;;30.45;30.57;101921.81;2091471;28;1009;-50
2022/06/27 05:16:41;;;;;;;;;;;;;;;30.83;30.13;101932.31;2091425;28;882;-52
2022/06/27 05:17:43;;;;;;;;;;;;;;;30.73;29.65;101928.38;2091425;28;910;-50
2022/06/27 05:18:43;;;;;;;;;;;;;;;30.86;29.43;101928.53;2091429;28;674;-51
2022/06/27 05:19:44;;;;;;;;;;;;;;;30.57;30.49;101933.84;2091522;28;772;-50
2022/06/27 05:20:44;;;;;;;;;;;;;;;30.50;30.13;101936.09;2091429;28;803;-50
2022/06/27 05:21:44;;;;;;;;;;;;;;;30.54;29.65;101934.94;2091414;28;886;-51
2022/06/27 05:22:45;;;;;;;;;;;;;;;30.79;30.31;101928.00;2090753;28;851;-50
2022/06/27 05:23:45;;;;;;;;;;;;;;;30.60;29.79;101931.88;2090834;28;961;-52
2022/06/27 05:24:48;;;;;;;;;;;;;;;30.64;30.31;101937.13;2091402;28;839;-51
2022/06/27 05:25:48;;;;;;;;;;;;;;;30.94;29.38;101931.66;2091399;28;810;-51
2022/06/27 05:26:49;;;;;;;;;;;;;;;31.08;29.74;101935.41;2091417;28;834;-51
2022/06/27 05:27:49;;;;;;;;;;;;;;;31.01;29.22;101929.44;2096938;28;1981;-52
2022/06/27 05:28:50;;;;;;;;;;;;;;;31.36;28.94;101931.84;2099421;28;1050;-50
2022/06/27 05:29:50;;;;;;;;;;;;;;;30.71;28.86;101938.53;2099688;28;849;-48
2022/06/27 05:30:50;;;;;;;;;;;;;;;30.34;30.40;101935.22;2099713;28;771;-48
2022/06/27 05:31:50;;;;;;;;;;;;;;;30.45;29.32;101928.13;2099685;28;863;-48
2022/06/27 05:32:50;;;;;;;;;;;;;;;30.67;29.11;101928.72;2099698;28;764;-48
2022/06/27 05:33:51;;;;;;;;;;;;;;;30.56;29.09;101930.25;2099669;28;843;-48
2022/06/27 05:34:51;;;;;;;;;;;;;;;31.00;28.80;101917.59;2099647;28;1035;-49
2022/06/27 05:35:52;;;;;;;;;;;;;;;31.00;28.30;101925.81;2099677;28;865;-48
2022/06/27 05:36:52;;;;;;;;;;;;;;;30.75;28.62;101926.44;2099668;28;763;-49
2022/06/27 05:37:54;;;;;;;;;;;;;;;30.99;28.62;101926.78;2099573;28;1019;-48
2022/06/27 05:38:55;;;;;;;;;;;;;;;31.07;28.08;101923.59;2099795;28;739;-49
2022/06/27 05:39:55;;;;;;;;;;;;;;;31.42;27.91;101926.00;2099644;28;873;-49
2022/06/27 05:40:55;;;;;;;;;;;;;;;31.08;27.98;101919.88;2099670;28;779;-48
2022/06/27 05:41:56;;;;;;;;;;;;;;;30.64;28.56;101920.72;2099630;28;846;-48
2022/06/27 05:42:57;;;;;;;;;;;;;;;30.45;29.20;101917.19;2099637;28;823;-49